Time;durP1;ratioP1;P1;durP2;ratioP2;P2;SDS_P1;SDS_P2;PMS_P1;PMS_P2;Temp;Humidity;BMP_temperature;BMP_pressure;BME280_temperature;BME280_humidity;BME280_pressure;Samples;Min_cycle;Max_cycle;Signal;HPM_P1;HPM_P2
2022/03/30 00:00:23;;;;;;;19.98;11.07;;;;;;;;;;5030151;28;20026;-64
2022/03/30 00:02:49;;;;;;;21.00;11.52;;;;;;;;;;5029911;28;20453;-65
2022/03/30 00:05:14;;;;;;;20.10;11.50;;;;;;;;;;5030242;28;20029;-64
2022/03/30 00:07:40;;;;;;;21.40;11.88;;;;;;;;;;5029853;28;20049;-65
2022/03/30 00:10:07;;;;;;;21.70;12.65;;;;;;;;;;5031224;28;20079;-64
2022/03/30 00:12:34;;;;;;;24.52;11.80;;;;;;;;;;5030611;28;20098;-64
2022/03/30 00:14:59;;;;;;;22.23;12.38;;;;;;;;;;5029983;28;20059;-65
2022/03/30 00:17:26;;;;;;;21.30;12.15;;;;;;;;;;5029811;28;20026;-64
2022/03/30 00:19:51;;;;;;;19.83;12.15;;;;;;;;;;5029812;28;20037;-64
2022/03/30 00:22:17;;;;;;;20.25;12.50;;;;;;;;;;5030010;28;20503;-64
2022/03/30 00:24:43;;;;;;;23.40;12.43;;;;;;;;;;5029849;28;20049;-64
2022/03/30 00:27:12;;;;;;;22.80;11.43;;;;;;;;;;5029870;28;20038;-65
2022/03/30 00:29:37;;;;;;;23.73;11.88;;;;;;;;;;5029689;28;20033;-64
2022/03/30 00:32:04;;;;;;;21.20;11.43;;;;;;;;;;5030031;28;20025;-64
2022/03/30 00:34:29;;;;;;;23.30;12.00;;;;;;;;;;5029804;28;20030;-64
2022/03/30 00:36:55;;;;;;;22.98;11.95;;;;;;;;;;5030014;28;20547;-65
2022/03/30 00:39:20;;;;;;;21.13;11.27;;;;;;;;;;5029574;28;20032;-64
2022/03/30 00:41:46;;;;;;;19.33;11.15;;;;;;;;;;5029864;28;20048;-64
2022/03/30 00:44:14;;;;;;;19.30;10.95;;;;;;;;;;5029794;28;20499;-64
2022/03/30 00:46:43;;;;;;;20.25;11.52;;;;;;;;;;5033060;28;20026;-65
2022/03/30 00:49:09;;;;;;;24.23;12.07;;;;;;;;;;5033286;28;20533;-64
2022/03/30 00:51:34;;;;;;;17.73;11.18;;;;;;;;;;5033540;28;20508;-64
2022/03/30 00:54:00;;;;;;;19.15;11.40;;;;;;;;;;5033037;28;20025;-65
2022/03/30 00:56:27;;;;;;;16.30;10.90;;;;;;;;;;5033139;28;20017;-64
2022/03/30 00:58:53;;;;;;;18.70;10.73;;;;;;;;;;5033153;28;20029;-64
2022/03/30 01:01:20;;;;;;;22.80;11.48;;;;;;;;;;5033507;28;20477;-64
2022/03/30 01:03:46;;;;;;;22.83;11.57;;;;;;;;;;5032914;28;20028;-64
2022/03/30 01:06:11;;;;;;;18.40;11.23;;;;;;;;;;5033256;28;20041;-64
2022/03/30 01:08:37;;;;;;;20.92;11.23;;;;;;;;;;5033114;28;20032;-65
2022/03/30 01:11:03;;;;;;;17.08;10.88;;;;;;;;;;5032778;28;20397;-64
2022/03/30 01:13:28;;;;;;;18.88;10.93;;;;;;;;;;5031711;28;20070;-64
2022/03/30 01:15:54;;;;;;;19.02;10.85;;;;;;;;;;5033010;28;20385;-64
2022/03/30 01:18:20;;;;;;;19.70;11.23;;;;;;;;;;5032797;28;20473;-64
2022/03/30 01:20:52;;;;;;;17.45;10.25;;;;;;;;;;5032591;28;20029;-64
2022/03/30 01:23:17;;;;;;;19.63;10.60;;;;;;;;;;5032963;28;20030;-64
2022/03/30 01:25:43;;;;;;;17.13;10.57;;;;;;;;;;5032614;28;20033;-65
2022/03/30 01:28:09;;;;;;;18.85;10.45;;;;;;;;;;5032584;28;20256;-64
2022/03/30 01:33:20;;;;;;;21.55;10.93;;;;;;;;;;5032924;28;20507;-64
2022/03/30 01:35:46;;;;;;;16.30;10.40;;;;;;;;;;5032429;28;20050;-64
2022/03/30 01:38:11;;;;;;;20.65;10.63;;;;;;;;;;5032443;28;20045;-64
2022/03/30 01:40:38;;;;;;;18.08;9.90;;;;;;;;;;5032262;28;20032;-65
2022/03/30 01:43:04;;;;;;;19.48;10.68;;;;;;;;;;5032499;28;20501;-65
2022/03/30 01:45:29;;;;;;;18.83;11.02;;;;;;;;;;5032537;28;20025;-64
2022/03/30 01:47:58;;;;;;;21.98;11.18;;;;;;;;;;5031986;28;20036;-64
2022/03/30 01:50:25;;;;;;;18.95;10.82;;;;;;;;;;5032114;28;20056;-64
2022/03/30 01:52:51;;;;;;;19.38;10.70;;;;;;;;;;5032408;28;20040;-64
2022/03/30 01:55:18;;;;;;;20.55;10.82;;;;;;;;;;5032165;28;20076;-64
2022/03/30 01:57:44;;;;;;;19.70;10.93;;;;;;;;;;5031578;28;20036;-64
2022/03/30 02:00:11;;;;;;;16.30;10.38;;;;;;;;;;5031741;28;20021;-64
2022/03/30 02:02:38;;;;;;;19.30;10.25;;;;;;;;;;5032016;28;20041;-65
2022/03/30 02:05:05;;;;;;;18.25;10.35;;;;;;;;;;5032160;28;20135;-64
2022/03/30 02:07:31;;;;;;;21.02;10.25;;;;;;;;;;5031563;28;20188;-64
2022/03/30 02:09:56;;;;;;;13.43;9.30;;;;;;;;;;5031926;28;20017;-65
2022/03/30 02:12:21;;;;;;;17.88;10.35;;;;;;;;;;5032014;28;20053;-64
2022/03/30 02:14:49;;;;;;;19.80;10.57;;;;;;;;;;5031686;28;20080;-64
2022/03/30 02:17:15;;;;;;;21.75;10.90;;;;;;;;;;5031601;28;20030;-65
2022/03/30 02:19:40;;;;;;;22.42;11.35;;;;;;;;;;5031489;28;20037;-65
2022/03/30 02:22:06;;;;;;;19.60;10.75;;;;;;;;;;5031710;28;20021;-64
2022/03/30 02:24:31;;;;;;;20.88;10.38;;;;;;;;;;5031709;28;20017;-64
2022/03/30 02:26:57;;;;;;;17.70;9.88;;;;;;;;;;5031341;28;20045;-64
2022/03/30 02:29:22;;;;;;;16.42;10.13;;;;;;;;;;5031826;28;20029;-64
2022/03/30 02:31:48;;;;;;;19.10;10.73;;;;;;;;;;5031417;28;20021;-64
2022/03/30 02:34:13;;;;;;;20.05;10.15;;;;;;;;;;5031449;28;20022;-64
2022/03/30 02:36:40;;;;;;;19.05;10.57;;;;;;;;;;5031345;28;20014;-65
2022/03/30 02:39:05;;;;;;;17.05;10.45;;;;;;;;;;5031063;28;20029;-64
2022/03/30 02:41:31;;;;;;;21.67;9.75;;;;;;;;;;5031133;28;20029;-64
2022/03/30 02:43:56;;;;;;;22.52;11.40;;;;;;;;;;5031486;28;20478;-65
2022/03/30 02:46:22;;;;;;;17.60;10.45;;;;;;;;;;5031020;28;20025;-64
2022/03/30 02:48:47;;;;;;;20.65;10.27;;;;;;;;;;5031079;28;20070;-65
2022/03/30 02:51:13;;;;;;;18.52;9.70;;;;;;;;;;5031072;28;20037;-64
2022/03/30 02:53:38;;;;;;;18.42;10.38;;;;;;;;;;5031295;28;20045;-64
2022/03/30 02:56:04;;;;;;;18.60;10.63;;;;;;;;;;5031319;28;20477;-64
2022/03/30 02:58:30;;;;;;;17.77;9.82;;;;;;;;;;5031076;28;20085;-64
2022/03/30 03:00:56;;;;;;;18.77;10.57;;;;;;;;;;5030805;28;20136;-64
2022/03/30 03:03:23;;;;;;;18.80;9.88;;;;;;;;;;5030807;28;20155;-64
2022/03/30 03:05:48;;;;;;;17.10;10.10;;;;;;;;;;5030890;28;20050;-64
2022/03/30 03:08:13;;;;;;;19.17;9.10;;;;;;;;;;5030153;28;20040;-64
2022/03/30 03:10:41;;;;;;;17.40;9.63;;;;;;;;;;5030606;28;20734;-64
2022/03/30 03:13:07;;;;;;;18.10;9.63;;;;;;;;;;5030780;28;20079;-64
2022/03/30 03:15:34;;;;;;;22.23;10.13;;;;;;;;;;5030566;28;20120;-64
2022/03/30 03:18:03;;;;;;;16.75;9.70;;;;;;;;;;5030316;28;20033;-64
2022/03/30 03:20:29;;;;;;;17.50;8.68;;;;;;;;;;5030448;28;20064;-64
2022/03/30 03:22:56;;;;;;;18.60;8.98;;;;;;;;;;5030715;28;20026;-64
2022/03/30 03:25:22;;;;;;;17.60;9.02;;;;;;;;;;5030465;28;20493;-64
2022/03/30 03:27:48;;;;;;;15.40;8.82;;;;;;;;;;5030438;28;20052;-64
2022/03/30 03:30:14;;;;;;;18.17;9.23;;;;;;;;;;5030470;28;20049;-64
2022/03/30 03:32:41;;;;;;;14.43;9.57;;;;;;;;;;5030383;28;20436;-65
2022/03/30 03:35:08;;;;;;;16.42;8.98;;;;;;;;;;5030857;28;20017;-64
2022/03/30 03:37:34;;;;;;;21.55;10.20;;;;;;;;;;5030404;28;20213;-64
2022/03/30 03:40:00;;;;;;;15.13;9.85;;;;;;;;;;5030522;28;20029;-70
2022/03/30 03:42:25;;;;;;;19.70;9.30;;;;;;;;;;5030171;28;20025;-64
2022/03/30 03:44:51;;;;;;;19.08;9.20;;;;;;;;;;5030396;28;20033;-64
2022/03/30 03:47:16;;;;;;;18.15;9.43;;;;;;;;;;5030424;28;20056;-64
2022/03/30 03:49:42;;;;;;;20.63;9.45;;;;;;;;;;5030518;28;20120;-65
2022/03/30 03:52:07;;;;;;;17.50;9.10;;;;;;;;;;5030306;28;20512;-64
2022/03/30 03:54:33;;;;;;;21.83;9.70;;;;;;;;;;5029180;28;20036;-64
2022/03/30 03:56:58;;;;;;;17.90;9.18;;;;;;;;;;5030318;28;20083;-64
2022/03/30 03:59:24;;;;;;;22.50;8.90;;;;;;;;;;5030139;28;20029;-64
2022/03/30 04:01:49;;;;;;;18.60;8.60;;;;;;;;;;5029940;28;20033;-64
2022/03/30 04:04:16;;;;;;;16.65;8.32;;;;;;;;;;5029960;28;20033;-65
2022/03/30 04:06:41;;;;;;;20.58;8.90;;;;;;;;;;5029840;28;20539;-64
2022/03/30 04:09:07;;;;;;;19.85;8.57;;;;;;;;;;5030092;28;20042;-64
2022/03/30 04:11:32;;;;;;;22.70;6.38;;;;;;;;;;5030098;28;20362;-65
2022/03/30 04:13:58;;;;;;;22.27;6.32;;;;;;;;;;5030507;28;20365;-65
2022/03/30 04:16:23;;;;;;;18.35;6.43;;;;;;;;;;5029933;28;20749;-64
2022/03/30 04:18:48;;;;;;;22.52;7.07;;;;;;;;;;5029771;28;20109;-64
2022/03/30 04:21:14;;;;;;;20.60;7.07;;;;;;;;;;5032837;28;20049;-64
2022/03/30 04:23:39;;;;;;;23.70;7.88;;;;;;;;;;5034048;28;20021;-64
2022/03/30 04:26:05;;;;;;;19.60;6.65;;;;;;;;;;5033900;28;20033;-64
2022/03/30 04:28:30;;;;;;;27.00;6.28;;;;;;;;;;5033797;28;20497;-64
2022/03/30 04:30:56;;;;;;;22.35;5.47;;;;;;;;;;5033851;28;20493;-64
2022/03/30 04:33:22;;;;;;;19.20;5.57;;;;;;;;;;5033580;28;20030;-64
2022/03/30 04:35:48;;;;;;;20.98;5.57;;;;;;;;;;5033901;28;20028;-64
2022/03/30 04:38:14;;;;;;;22.30;6.07;;;;;;;;;;5033515;28;20033;-65
2022/03/30 04:40:40;;;;;;;22.15;5.53;;;;;;;;;;5033594;28;20091;-64
2022/03/30 04:43:05;;;;;;;24.85;6.38;;;;;;;;;;5033522;28;20033;-64
2022/03/30 04:45:31;;;;;;;19.95;5.82;;;;;;;;;;5033607;28;20041;-64
2022/03/30 04:47:57;;;;;;;16.33;5.55;;;;;;;;;;5032988;28;20025;-64
2022/03/30 04:50:24;;;;;;;20.55;6.03;;;;;;;;;;5033803;28;20032;-64
2022/03/30 04:52:51;;;;;;;20.98;5.90;;;;;;;;;;5033223;28;20032;-64
2022/03/30 04:55:16;;;;;;;18.98;6.00;;;;;;;;;;5033356;28;20280;-64
2022/03/30 04:57:42;;;;;;;24.25;6.03;;;;;;;;;;5033155;28;20196;-65
2022/03/30 05:00:10;;;;;;;15.63;5.45;;;;;;;;;;5033209;28;20374;-64
2022/03/30 05:02:37;;;;;;;23.58;6.18;;;;;;;;;;5033099;28;20022;-64
2022/03/30 05:05:04;;;;;;;17.80;5.28;;;;;;;;;;5033274;28;20064;-64
2022/03/30 05:07:29;;;;;;;19.65;6.07;;;;;;;;;;5032810;28;20050;-64
2022/03/30 05:09:57;;;;;;;23.33;6.28;;;;;;;;;;5032690;28;20291;-65
2022/03/30 05:12:23;;;;;;;18.77;6.15;;;;;;;;;;5032974;28;20048;-64
2022/03/30 05:14:49;;;;;;;23.00;6.05;;;;;;;;;;5032834;28;20034;-64
2022/03/30 05:17:15;;;;;;;18.30;5.78;;;;;;;;;;5032584;28;20031;-64
2022/03/30 05:19:41;;;;;;;18.00;5.95;;;;;;;;;;5032625;28;20041;-64
2022/03/30 05:22:06;;;;;;;17.85;6.00;;;;;;;;;;5032536;28;20095;-64
2022/03/30 05:24:32;;;;;;;26.15;6.18;;;;;;;;;;5031356;28;20029;-64
2022/03/30 05:26:58;;;;;;;19.73;5.90;;;;;;;;;;5032392;28;20040;-64
2022/03/30 05:29:23;;;;;;;26.33;6.65;;;;;;;;;;5032347;28;20036;-70
2022/03/30 05:31:49;;;;;;;20.00;6.00;;;;;;;;;;5030042;28;20496;-64
2022/03/30 05:34:15;;;;;;;17.98;6.22;;;;;;;;;;5032544;28;20060;-65
2022/03/30 05:36:40;;;;;;;19.77;6.22;;;;;;;;;;5032400;28;20029;-64
2022/03/30 05:39:06;;;;;;;19.13;6.40;;;;;;;;;;5032122;28;20029;-64
2022/03/30 05:41:33;;;;;;;22.83;6.72;;;;;;;;;;5032556;28;20087;-64
2022/03/30 05:43:58;;;;;;;20.05;6.47;;;;;;;;;;5031887;28;20116;-64
2022/03/30 05:46:24;;;;;;;24.00;6.60;;;;;;;;;;5032311;28;20105;-65
2022/03/30 05:48:49;;;;;;;19.42;6.00;;;;;;;;;;5031703;28;20021;-64
2022/03/30 05:51:15;;;;;;;21.27;6.38;;;;;;;;;;5032445;28;20104;-64
2022/03/30 05:53:40;;;;;;;16.48;6.53;;;;;;;;;;5031984;28;20021;-64
2022/03/30 05:56:06;;;;;;;15.80;6.07;;;;;;;;;;5032306;28;20022;-64
2022/03/30 05:58:31;;;;;;;22.30;6.78;;;;;;;;;;5031824;28;20060;-64
2022/03/30 06:00:57;;;;;;;20.83;6.25;;;;;;;;;;5032051;28;20041;-64
2022/03/30 06:03:23;;;;;;;21.90;7.25;;;;;;;;;;5031794;28;20104;-67
2022/03/30 06:05:50;;;;;;;26.88;7.10;;;;;;;;;;5031736;28;20049;-65
2022/03/30 06:08:16;;;;;;;31.42;7.22;;;;;;;;;;5031760;28;20044;-65
2022/03/30 06:10:41;;;;;;;23.35;7.25;;;;;;;;;;5031886;28;20041;-64
2022/03/30 06:13:07;;;;;;;26.05;7.45;;;;;;;;;;5031651;28;20044;-64
2022/03/30 06:15:33;;;;;;;21.02;6.65;;;;;;;;;;5031918;28;20040;-64
2022/03/30 06:17:58;;;;;;;27.80;7.05;;;;;;;;;;5031379;28;20022;-64
2022/03/30 06:20:25;;;;;;;18.25;6.55;;;;;;;;;;5031578;28;20037;-64
2022/03/30 06:22:55;;;;;;;24.10;6.55;;;;;;;;;;5031447;28;20389;-64
2022/03/30 06:25:24;;;;;;;23.27;6.93;;;;;;;;;;5031733;28;20110;-65
2022/03/30 06:27:50;;;;;;;28.95;6.75;;;;;;;;;;5031482;28;20496;-65
2022/03/30 06:30:16;;;;;;;23.67;6.40;;;;;;;;;;5031490;28;20029;-64
2022/03/30 06:32:41;;;;;;;26.42;6.78;;;;;;;;;;5031160;28;20112;-64
2022/03/30 06:35:07;;;;;;;28.20;7.65;;;;;;;;;;5031427;28;20293;-64
2022/03/30 06:37:33;;;;;;;18.73;6.32;;;;;;;;;;5031042;28;20067;-64
2022/03/30 06:39:58;;;;;;;25.88;6.85;;;;;;;;;;5031058;28;20064;-64
2022/03/30 06:42:24;;;;;;;25.70;6.47;;;;;;;;;;5031115;28;20044;-64
2022/03/30 06:44:49;;;;;;;22.90;6.40;;;;;;;;;;5030953;28;20068;-64
2022/03/30 06:47:15;;;;;;;20.23;6.38;;;;;;;;;;5031175;28;20066;-65
2022/03/30 06:49:41;;;;;;;24.27;6.22;;;;;;;;;;5031211;28;20033;-64
2022/03/30 06:52:08;;;;;;;28.73;6.05;;;;;;;;;;5031475;28;20025;-64
2022/03/30 06:54:35;;;;;;;27.75;6.20;;;;;;;;;;5030593;28;20104;-64
2022/03/30 06:57:02;;;;;;;26.92;6.10;;;;;;;;;;5031009;28;20544;-64
2022/03/30 06:59:28;;;;;;;21.80;6.30;;;;;;;;;;5030238;28;20069;-65
2022/03/30 07:01:58;;;;;;;23.15;6.63;;;;;;;;;;5030825;28;20111;-64
2022/03/30 07:04:24;;;;;;;29.15;6.47;;;;;;;;;;5030441;28;20083;-64
2022/03/30 07:12:17;;;;;;;21.90;6.90;;;;;;;;;;5030775;28;20397;-64
2022/03/30 07:14:46;;;;;;;30.25;6.90;;;;;;;;;;5030396;28;20473;-66
2022/03/30 07:17:11;;;;;;;28.17;5.68;;;;;;;;;;5030661;28;20040;-64
2022/03/30 07:19:38;;;;;;;22.08;5.72;;;;;;;;;;5030118;28;20116;-64
2022/03/30 07:22:04;;;;;;;18.15;5.97;;;;;;;;;;5030511;28;20393;-64
2022/03/30 07:24:29;;;;;;;23.33;5.85;;;;;;;;;;5030191;28;20033;-65
2022/03/30 07:26:55;;;;;;;36.58;5.65;;;;;;;;;;5030421;28;20118;-64
2022/03/30 07:29:20;;;;;;;24.77;6.13;;;;;;;;;;5029846;28;20029;-65
2022/03/30 07:31:46;;;;;;;29.25;6.32;;;;;;;;;;5030361;28;20059;-68
2022/03/30 07:34:11;;;;;;;24.05;5.80;;;;;;;;;;5029925;28;20033;-64
2022/03/30 07:36:38;;;;;;;24.63;6.00;;;;;;;;;;5030367;28;20021;-64
2022/03/30 07:39:04;;;;;;;26.30;6.43;;;;;;;;;;5029878;28;20037;-64
2022/03/30 07:41:30;;;;;;;25.23;6.18;;;;;;;;;;5030556;28;20025;-64
2022/03/30 07:43:55;;;;;;;26.52;6.32;;;;;;;;;;5030104;28;20022;-64
2022/03/30 07:46:21;;;;;;;22.77;6.10;;;;;;;;;;5030388;28;20029;-64
2022/03/30 07:48:46;;;;;;;26.05;6.20;;;;;;;;;;5028627;28;20030;-64
2022/03/30 07:51:11;;;;;;;22.23;6.35;;;;;;;;;;5030195;28;20119;-64
2022/03/30 07:53:37;;;;;;;18.88;6.50;;;;;;;;;;5030152;28;20124;-65
2022/03/30 07:56:02;;;;;;;19.83;6.03;;;;;;;;;;5029885;28;20032;-64
2022/03/30 07:58:28;;;;;;;18.23;5.78;;;;;;;;;;5030161;28;20039;-65
2022/03/30 08:00:53;;;;;;;27.17;5.82;;;;;;;;;;5030062;28;20061;-65
2022/03/30 08:03:19;;;;;;;25.23;6.07;;;;;;;;;;5030018;28;20113;-65
2022/03/30 08:05:44;;;;;;;24.77;6.18;;;;;;;;;;5029648;28;20059;-65
2022/03/30 08:08:10;;;;;;;24.83;6.18;;;;;;;;;;5030177;28;20381;-64
2022/03/30 08:10:37;;;;;;;30.95;6.53;;;;;;;;;;5029850;28;20030;-66
2022/03/30 08:13:03;;;;;;;21.48;5.80;;;;;;;;;;5030114;28;20038;-65
2022/03/30 08:15:31;;;;;;;28.65;6.40;;;;;;;;;;5029922;28;20396;-64
2022/03/30 08:17:56;;;;;;;20.88;6.13;;;;;;;;;;5029764;28;20087;-65
2022/03/30 08:23:08;;;;;;;28.08;5.90;;;;;;;;;;5030211;28;20039;-65
2022/03/30 08:25:34;;;;;;;26.42;5.88;;;;;;;;;;5029731;28;20025;-64
2022/03/30 08:28:00;;;;;;;26.45;6.45;;;;;;;;;;5030249;28;20116;-64
2022/03/30 08:30:26;;;;;;;23.63;5.88;;;;;;;;;;5029480;28;20124;-64
2022/03/30 08:32:51;;;;;;;22.80;6.18;;;;;;;;;;5030124;28;20025;-65
2022/03/30 08:35:17;;;;;;;23.27;6.13;;;;;;;;;;5029640;28;20473;-64
2022/03/30 08:37:42;;;;;;;26.50;5.90;;;;;;;;;;5029897;28;20033;-64
2022/03/30 08:40:08;;;;;;;24.13;6.10;;;;;;;;;;5029422;28;20029;-64
2022/03/30 08:42:35;;;;;;;17.92;6.07;;;;;;;;;;5030347;28;20032;-64
2022/03/30 08:45:03;;;;;;;23.73;5.20;;;;;;;;;;5029600;28;20021;-65
2022/03/30 08:47:29;;;;;;;19.42;5.95;;;;;;;;;;5029987;28;20036;-64
2022/03/30 08:49:55;;;;;;;20.83;5.55;;;;;;;;;;5029537;28;20025;-64
2022/03/30 08:52:20;;;;;;;25.05;5.85;;;;;;;;;;5029819;28;20036;-64
2022/03/30 08:54:50;;;;;;;22.90;6.13;;;;;;;;;;5029622;28;20029;-64
2022/03/30 08:57:15;;;;;;;23.95;6.07;;;;;;;;;;5029726;28;20293;-65
2022/03/30 09:00:03;;;;;;;25.17;5.95;;;;;;;;;;5029142;28;20214;-64
2022/03/30 09:02:39;;;;;;;22.98;5.65;;;;;;;;;;5029904;28;20183;-65
2022/03/30 09:05:19;;;;;;;20.85;5.70;;;;;;;;;;5029267;28;20032;-64
2022/03/30 09:07:48;;;;;;;25.83;5.90;;;;;;;;;;5031257;28;20072;-64
2022/03/30 09:10:23;;;;;;;23.65;5.57;;;;;;;;;;5032850;28;20069;-64
2022/03/30 09:12:51;;;;;;;23.00;5.82;;;;;;;;;;5032974;28;20026;-64
2022/03/30 09:15:20;;;;;;;17.27;5.70;;;;;;;;;;5032823;28;20508;-64
2022/03/30 09:17:46;;;;;;;20.15;6.18;;;;;;;;;;5033046;28;20025;-68
2022/03/30 09:20:20;;;;;;;16.25;5.75;;;;;;;;;;5032274;28;20044;-67
2022/03/30 09:22:49;;;;;;;18.55;5.43;;;;;;;;;;5032842;28;20025;-68
2022/03/30 09:25:16;;;;;;;17.25;5.55;;;;;;;;;;5032577;28;20017;-68
2022/03/30 09:27:43;;;;;;;17.73;6.47;;;;;;;;;;5032843;28;20021;-68
2022/03/30 09:30:17;;;;;;;18.98;5.93;;;;;;;;;;5032211;28;20473;-68
2022/03/30 09:32:44;;;;;;;27.98;7.45;;;;;;;;;;5032645;28;20435;-67
2022/03/30 09:35:24;;;;;;;22.42;5.60;;;;;;;;;;5032444;28;20049;-68
2022/03/30 09:38:21;;;;;;;19.77;6.33;;;;;;;;;;5032849;28;20025;-67
2022/03/30 09:40:54;;;;;;;16.27;5.30;;;;;;;;;;5032211;28;20025;-67
2022/03/30 09:43:22;;;;;;;19.35;5.57;;;;;;;;;;5032339;28;20021;-66
2022/03/30 09:46:06;;;;;;;21.10;5.70;;;;;;;;;;5031989;28;20029;-68
2022/03/30 09:48:35;;;;;;;15.10;5.38;;;;;;;;;;5032186;28;20057;-67
2022/03/30 10:03:52;;;;;;;21.52;5.82;;;;;;;;;;5127777;27;20375;-69
2022/03/30 10:06:22;;;;;;;18.70;5.30;;;;;;;;;;5128193;27;20051;-69
2022/03/30 10:08:50;;;;;;;19.07;4.80;;;;;;;;;;5128073;27;20116;-70
2022/03/30 10:11:16;;;;;;;14.75;5.07;;;;;;;;;;5128395;27;20028;-67
2022/03/30 10:13:43;;;;;;;14.15;5.15;;;;;;;;;;5128140;27;20015;-67
2022/03/30 10:16:10;;;;;;;19.40;5.40;;;;;;;;;;5127915;27;20047;-68
2022/03/30 10:18:37;;;;;;;14.77;4.75;;;;;;;;;;5127948;27;20012;-69
2022/03/30 10:21:20;;;;;;;15.13;4.80;;;;;;;;;;5128007;27;20024;-67
2022/03/30 10:24:02;;;;;;;15.23;5.43;;;;;;;;;;5127661;27;20182;-67
2022/03/30 10:26:48;;;;;;;16.33;5.88;;;;;;;;;;5127723;27;20623;-72
2022/03/30 10:29:17;;;;;;;14.07;5.72;;;;;;;;;;5127786;27;20035;-68
2022/03/30 10:32:21;;;;;;;17.58;5.60;;;;;;;;;;5127528;27;20027;-67
2022/03/30 10:35:12;;;;;;;17.10;6.20;;;;;;;;;;5127427;27;20112;-67
2022/03/30 10:37:41;;;;;;;16.45;5.97;;;;;;;;;;5127493;27;20026;-67
2022/03/30 10:40:09;;;;;;;12.70;5.75;;;;;;;;;;5127295;27;20057;-69
2022/03/30 10:42:46;;;;;;;15.75;5.63;;;;;;;;;;5127947;27;20039;-70
2022/03/30 10:45:27;;;;;;;18.83;5.13;;;;;;;;;;5127763;27;20110;-68
2022/03/30 10:48:09;;;;;;;;;;;;;;;;;;5126802;27;20115;-70
2022/03/30 10:50:36;;;;;;;15.82;4.75;;;;;;;;;;5125928;28;19907;-69
2022/03/30 10:53:02;;;;;;;13.40;5.18;;;;;;;;;;5127074;27;20035;-69
2022/03/30 10:55:30;;;;;;;14.15;5.03;;;;;;;;;;5127137;27;20019;-67
2022/03/30 10:58:01;;;;;;;18.90;5.05;;;;;;;;;;5127131;27;20030;-68
2022/03/30 11:00:36;;;;;;;14.68;4.93;;;;;;;;;;5127110;27;20028;-70
2022/03/30 11:03:12;;;;;;;16.77;4.75;;;;;;;;;;5123138;27;20140;-67
2022/03/30 11:05:38;;;;;;;12.05;4.80;;;;;;;;;;5113272;28;20088;-68
2022/03/30 11:08:05;;;;;;;14.02;5.25;;;;;;;;;;5113120;27;20380;-68
2022/03/30 11:10:45;;;;;;;18.63;5.13;;;;;;;;;;5113417;28;20093;-68
2022/03/30 11:13:14;;;;;;;13.25;4.57;;;;;;;;;;5113149;28;20028;-70
2022/03/30 11:16:00;;;;;;;14.07;4.57;;;;;;;;;;5113574;28;20083;-69
2022/03/30 11:18:30;;;;;;;14.60;4.25;;;;;;;;;;5113117;28;20069;-67
2022/03/30 11:21:17;;;;;;;16.38;4.18;;;;;;;;;;5113117;28;20023;-71
2022/03/30 11:23:55;;;;;;;12.98;4.45;;;;;;;;;;5112535;27;20028;-70
2022/03/30 11:26:23;;;;;;;16.77;4.57;;;;;;;;;;5112768;28;20020;-68
2022/03/30 11:28:48;;;;;;;19.40;5.75;;;;;;;;;;5112641;28;20027;-71
2022/03/30 11:31:23;;;;;;;18.23;5.50;;;;;;;;;;5112692;27;20054;-69
2022/03/30 11:34:26;;;;;;;19.55;5.63;;;;;;;;;;5112793;28;20522;-66
2022/03/30 11:36:53;;;;;;;17.27;5.07;;;;;;;;;;5112664;28;20058;-68
2022/03/30 11:39:32;;;;;;;13.50;4.90;;;;;;;;;;5112121;28;20019;-68
2022/03/30 11:41:59;;;;;;;14.23;4.75;;;;;;;;;;5112617;28;20015;-72
2022/03/30 11:47:18;;;;;;;13.70;4.07;;;;;;;;;;5112874;28;20035;-70
2022/03/30 11:49:57;;;;;;;14.95;4.07;;;;;;;;;;5112345;28;20073;-67
2022/03/30 11:52:23;;;;;;;15.38;4.10;;;;;;;;;;5112402;28;20072;-68
2022/03/30 11:54:50;;;;;;;18.08;3.72;;;;;;;;;;5112498;28;20027;-67
2022/03/30 11:57:17;;;;;;;16.63;3.55;;;;;;;;;;5112622;28;20028;-71
2022/03/30 11:59:52;;;;;;;17.80;3.30;;;;;;;;;;5111810;28;20635;-66
2022/03/30 12:02:19;;;;;;;16.15;3.55;;;;;;;;;;5111853;28;20089;-68
2022/03/30 12:04:45;;;;;;;19.05;3.70;;;;;;;;;;5112305;28;20096;-68
2022/03/30 12:07:15;;;;;;;19.55;3.25;;;;;;;;;;5112221;28;20486;-68
2022/03/30 12:09:52;;;;;;;19.50;4.30;;;;;;;;;;5112110;27;20027;-68
2022/03/30 12:12:37;;;;;;;15.10;3.50;;;;;;;;;;5111935;28;20289;-72
2022/03/30 12:15:16;;;;;;;18.27;3.28;;;;;;;;;;5110899;28;20019;-68
2022/03/30 12:17:48;;;;;;;23.13;4.32;;;;;;;;;;5111675;28;20427;-67
2022/03/30 12:20:31;;;;;;;31.35;4.10;;;;;;;;;;5111748;28;20049;-68
2022/03/30 12:23:05;;;;;;;20.13;3.70;;;;;;;;;;5111746;28;20517;-72
2022/03/30 12:25:41;;;;;;;19.88;4.10;;;;;;;;;;5112056;28;20076;-74
2022/03/30 12:28:07;;;;;;;18.77;3.75;;;;;;;;;;5111741;28;20118;-66
2022/03/30 12:30:35;;;;;;;22.75;4.68;;;;;;;;;;5111527;28;20095;-71
2022/03/30 12:33:01;;;;;;;20.55;4.28;;;;;;;;;;5111548;28;20020;-72
2022/03/30 12:35:37;;;;;;;24.60;5.88;;;;;;;;;;5111479;28;20089;-71
2022/03/30 12:38:11;;;;;;;20.40;4.20;;;;;;;;;;5111506;28;20077;-68
2022/03/30 12:40:40;;;;;;;22.95;4.28;;;;;;;;;;5111593;28;20038;-72
2022/03/30 12:43:07;;;;;;;19.85;4.35;;;;;;;;;;5111561;28;20077;-68
2022/03/30 12:45:44;;;;;;;22.67;3.75;;;;;;;;;;5111814;28;20459;-71
2022/03/30 12:48:10;;;;;;;22.63;4.10;;;;;;;;;;5111389;28;20081;-71
2022/03/30 12:50:36;;;;;;;26.50;4.05;;;;;;;;;;5111070;28;20031;-68
2022/03/30 12:53:15;;;;;;;23.42;3.55;;;;;;;;;;5111128;28;20509;-70
2022/03/30 12:55:42;;;;;;;20.25;3.28;;;;;;;;;;5111492;28;20108;-72
2022/03/30 12:58:13;;;;;;;23.58;3.40;;;;;;;;;;5111468;28;20096;-70
2022/03/30 13:00:44;;;;;;;;;;;;;;;;;;5111457;28;20092;-66
2022/03/30 13:03:20;;;;;;;18.55;2.97;;;;;;;;;;5110997;28;19980;-72
2022/03/30 13:06:02;;;;;;;22.65;3.17;;;;;;;;;;5111105;27;20046;-68
2022/03/30 13:08:27;;;;;;;24.02;3.83;;;;;;;;;;5109472;28;20023;-68
2022/03/30 13:11:00;;;;;;;21.13;3.30;;;;;;;;;;5110707;28;20123;-69
2022/03/30 13:13:36;;;;;;;16.25;3.33;;;;;;;;;;5110738;28;20131;-68
2022/03/30 13:16:19;;;;;;;20.48;3.65;;;;;;;;;;5110879;28;20027;-69
2022/03/30 13:19:06;;;;;;;22.92;3.85;;;;;;;;;;5111031;28;20032;-68
2022/03/30 13:21:44;;;;;;;24.27;3.72;;;;;;;;;;5110497;28;20446;-71
2022/03/30 13:24:16;;;;;;;19.95;3.67;;;;;;;;;;5110673;28;20027;-67
2022/03/30 13:26:46;;;;;;;18.17;3.45;;;;;;;;;;5111239;28;20019;-68
2022/03/30 13:29:14;;;;;;;;;;;;;;;;;;5111102;28;20105;-69
2022/03/30 13:31:42;;;;;;;18.70;3.67;;;;;;;;;;5110496;28;19915;-68
2022/03/30 13:34:09;;;;;;;19.65;4.18;;;;;;;;;;5110870;28;20047;-68
2022/03/30 13:36:35;;;;;;;19.15;4.10;;;;;;;;;;5110879;28;20424;-68
2022/03/30 13:39:03;;;;;;;22.10;4.00;;;;;;;;;;5110674;28;20023;-68
2022/03/30 13:41:30;;;;;;;18.83;4.00;;;;;;;;;;5111164;28;20028;-68
2022/03/30 13:43:56;;;;;;;24.80;4.53;;;;;;;;;;5110513;28;20043;-68
2022/03/30 13:46:22;;;;;;;21.13;4.13;;;;;;;;;;5110516;28;20050;-67
2022/03/30 13:48:48;;;;;;;22.23;4.28;;;;;;;;;;5110647;28;20020;-70
2022/03/30 13:51:13;;;;;;;29.63;4.30;;;;;;;;;;5110488;28;20451;-68
2022/03/30 13:53:39;;;;;;;23.55;4.20;;;;;;;;;;5109279;28;20028;-68
2022/03/30 13:56:06;;;;;;;28.95;4.28;;;;;;;;;;5109046;28;20039;-69
2022/03/30 13:58:34;;;;;;;28.70;4.53;;;;;;;;;;5110217;28;20019;-68
2022/03/30 14:01:00;;;;;;;30.25;4.10;;;;;;;;;;5110098;28;20023;-68
2022/03/30 14:03:25;;;;;;;24.10;4.00;;;;;;;;;;5110166;28;20069;-69
2022/03/30 14:05:53;;;;;;;26.77;4.35;;;;;;;;;;5110894;28;20035;-70
2022/03/30 14:08:19;;;;;;;28.17;3.88;;;;;;;;;;5110155;28;20023;-69
2022/03/30 14:10:45;;;;;;;31.50;4.55;;;;;;;;;;5110195;28;20111;-68
2022/03/30 14:13:11;;;;;;;23.08;4.65;;;;;;;;;;5110350;28;20814;-68
2022/03/30 14:15:37;;;;;;;28.85;6.10;;;;;;;;;;5109994;28;20386;-71
2022/03/30 14:18:03;;;;;;;27.58;4.68;;;;;;;;;;5110237;28;20034;-73
2022/03/30 14:20:29;;;;;;;26.30;4.80;;;;;;;;;;5109918;28;20055;-73
2022/03/30 14:22:54;;;;;;;21.90;3.92;;;;;;;;;;5110104;28;20054;-72
2022/03/30 14:25:20;;;;;;;27.23;4.50;;;;;;;;;;5109938;28;20030;-71
2022/03/30 14:27:46;;;;;;;18.40;3.42;;;;;;;;;;5110145;28;20023;-69
2022/03/30 14:30:14;;;;;;;13.50;2.50;;;;;;;;;;5109872;28;20024;-70
2022/03/30 14:32:40;;;;;;;19.65;2.88;;;;;;;;;;5109859;28;20085;-72
2022/03/30 14:35:07;;;;;;;15.85;3.33;;;;;;;;;;5109828;28;20024;-71
2022/03/30 14:37:34;;;;;;;16.15;2.75;;;;;;;;;;5110123;28;20537;-72
2022/03/30 14:40:00;;;;;;;12.82;3.00;;;;;;;;;;5113121;28;20023;-71
2022/03/30 14:42:26;;;;;;;20.92;3.35;;;;;;;;;;5113876;28;20031;-72
2022/03/30 14:44:51;;;;;;;16.40;3.58;;;;;;;;;;5114029;28;20035;-71
2022/03/30 14:47:17;;;;;;;21.08;3.33;;;;;;;;;;5113784;28;20277;-72
2022/03/30 14:49:46;;;;;;;20.45;3.60;;;;;;;;;;5113503;28;20032;-71
2022/03/30 14:52:18;;;;;;;17.08;3.00;;;;;;;;;;5113277;28;20047;-71
2022/03/30 14:54:44;;;;;;;15.60;2.83;;;;;;;;;;5113585;28;20130;-72
2022/03/30 14:57:10;;;;;;;23.63;3.03;;;;;;;;;;5113570;28;20382;-71
2022/03/30 14:59:37;;;;;;;15.65;3.00;;;;;;;;;;5113436;28;20099;-71